createdAt,value
2022-11-06T00:05:55.879Z,8.8
2022-11-06T00:15:58.337Z,8.8
2022-11-06T00:26:00.716Z,8.7
2022-11-06T00:36:03.347Z,8.7
2022-11-06T00:46:05.192Z,8.5
2022-11-06T00:56:07.802Z,8.4
2022-11-06T01:06:10.092Z,8.3
2022-11-06T01:16:11.805Z,8.2
2022-11-06T01:26:13.678Z,8.2
2022-11-06T01:36:16.290Z,8.1
2022-11-06T01:46:18.046Z,8.1
2022-11-06T01:56:20.535Z,8
2022-11-06T02:06:23.151Z,8
2022-11-06T02:16:24.991Z,8
2022-11-06T02:26:27.425Z,8
2022-11-06T02:36:29.861Z,7.9
2022-11-06T02:46:31.604Z,8
2022-11-06T02:56:33.562Z,8
2022-11-06T03:06:36.185Z,8
2022-11-06T03:16:37.850Z,7.9
2022-11-06T03:26:40.497Z,7.9
2022-11-06T03:36:42.414Z,8
2022-11-06T03:46:44.714Z,8
2022-11-06T03:56:46.618Z,7.9
2022-11-06T04:06:48.555Z,7.9
2022-11-06T04:16:50.630Z,7.9
2022-11-06T04:26:52.778Z,7.8
2022-11-06T04:36:54.670Z,7.8
2022-11-06T04:46:56.600Z,7.9
2022-11-06T04:56:58.526Z,7.9
2022-11-06T05:07:00.736Z,8
2022-11-06T05:17:03.275Z,8
2022-11-06T05:27:05.882Z,8
2022-11-06T05:37:07.882Z,8
2022-11-06T05:47:10.215Z,7.9
2022-11-06T05:57:12.016Z,7.9
2022-11-06T06:07:14.650Z,7.9
2022-11-06T06:17:16.688Z,7.9
2022-11-06T06:27:19.118Z,7.8
2022-11-06T06:37:21.364Z,7.8
2022-11-06T06:47:23.734Z,7.8
2022-11-06T06:57:25.551Z,7.9
2022-11-06T07:07:27.629Z,8
2022-11-06T07:17:29.369Z,8.1
2022-11-06T07:27:31.059Z,8.3
2022-11-06T07:37:33.267Z,8.7
2022-11-06T07:47:35.242Z,9.2
2022-11-06T07:57:37.545Z,9.3
2022-11-06T08:07:39.299Z,9.5
2022-11-06T08:17:41.633Z,9.8
2022-11-06T08:27:43.437Z,10.3
2022-11-06T08:37:45.650Z,10.5
2022-11-06T08:47:47.537Z,10.6
2022-11-06T08:57:49.884Z,11.3
2022-11-06T09:07:52.114Z,11
2022-11-06T09:17:54.013Z,11.3
2022-11-06T09:27:59.104Z,11.4
2022-11-06T09:37:58.148Z,11.2
2022-11-06T09:48:00.329Z,11
2022-11-06T09:58:02.534Z,11.1
2022-11-06T10:08:04.663Z,11
2022-11-06T10:18:07.058Z,11.3
2022-11-06T10:28:09.481Z,11.6
2022-11-06T10:38:11.907Z,11.3
2022-11-06T10:48:14.094Z,11.3
2022-11-06T10:58:16.433Z,11.6
2022-11-06T11:08:17.976Z,12
2022-11-06T11:18:19.698Z,12
2022-11-06T11:28:22.304Z,12.2
2022-11-06T11:38:24.016Z,12.6
2022-11-06T11:58:28.057Z,12.5
2022-11-06T12:08:30.439Z,12.2
2022-11-06T12:18:32.952Z,12.1
2022-11-06T12:28:35.449Z,12.2
2022-11-06T12:38:37.981Z,12.3
2022-11-06T12:48:40.039Z,12.8
2022-11-06T13:08:44.002Z,12
2022-11-06T13:18:50.474Z,11.9
2022-11-06T13:28:48.843Z,11.9
2022-11-06T13:38:51.493Z,11.8
2022-11-06T13:48:53.310Z,11.8
2022-11-06T13:58:55.587Z,11.8
2022-11-06T14:08:57.324Z,11.7
2022-11-06T14:18:59.843Z,11.6
2022-11-06T14:29:02.057Z,11.6
2022-11-06T14:39:03.770Z,11.6
2022-11-06T14:49:05.923Z,11.6
2022-11-06T14:59:07.716Z,11.7
2022-11-06T15:09:09.707Z,11.6
2022-11-06T15:19:12.007Z,11.7
2022-11-06T15:29:14.002Z,11.7
2022-11-06T15:39:16.231Z,11.6
2022-11-06T15:49:18.782Z,11.5
2022-11-06T15:59:20.978Z,11.5
2022-11-06T16:09:23.349Z,11.4
2022-11-06T16:19:25.377Z,11
2022-11-06T16:29:27.558Z,10.4
2022-11-06T16:39:47.602Z,10.1
2022-11-06T16:49:32.331Z,9.8
2022-11-06T16:59:34.667Z,9.8
2022-11-06T17:09:36.688Z,9.4
2022-11-06T17:19:38.740Z,9.4
2022-11-06T17:29:41.411Z,9.4
2022-11-06T17:39:43.471Z,9.4
2022-11-06T17:49:45.668Z,9.4
2022-11-06T17:59:48.222Z,9.5
2022-11-06T18:09:50.620Z,9.5
2022-11-06T18:19:52.652Z,9.5
2022-11-06T18:20:14.597Z,9.5
2022-11-06T18:30:01.515Z,9.6
2022-11-06T18:40:03.770Z,9.5
2022-11-06T18:50:06.044Z,9.6
2022-11-06T19:00:07.978Z,9.6
2022-11-06T19:10:10.633Z,9.6
2022-11-06T19:20:14.674Z,9.8
2022-11-06T19:30:15.111Z,9.8
2022-11-06T19:40:17.430Z,9.9
2022-11-06T19:50:28.745Z,10
2022-11-06T20:00:21.820Z,10
2022-11-06T20:10:23.714Z,10.1
2022-11-06T20:20:25.819Z,10.2
2022-11-06T20:30:28.116Z,10.4
2022-11-06T20:40:33.536Z,10.4
2022-11-06T20:50:32.574Z,10.4
2022-11-06T21:00:35.239Z,10.4
2022-11-06T21:10:37.695Z,10.3
2022-11-06T21:20:40.301Z,10.4
2022-11-06T21:30:42.689Z,10.4
2022-11-06T21:40:44.417Z,10.4
2022-11-06T21:50:46.649Z,10.5
2022-11-06T22:00:48.451Z,10.4
2022-11-06T22:10:50.655Z,10.4
2022-11-06T22:20:52.565Z,10.5
2022-11-06T22:30:55.070Z,10.6
2022-11-06T22:40:57.693Z,10.6
2022-11-06T22:50:59.399Z,10.6
2022-11-06T23:01:01.936Z,10.7
2022-11-06T23:11:04.290Z,10.5
2022-11-06T23:21:05.963Z,10.4
2022-11-06T23:31:07.613Z,10.5
2022-11-06T23:41:09.821Z,10.6
2022-11-06T23:51:12.374Z,10.8
